sensor_id;sensor_type;location;lat;lon;timestamp;temperature;humidity
13892;DHT22;7016;48.172;8.058;2023-02-12T00:00:08;1.10;99.90
13892;DHT22;7016;48.172;8.058;2023-02-12T00:02:34;1.20;99.90
13892;DHT22;7016;48.172;8.058;2023-02-12T00:05:00;1.10;99.90
13892;DHT22;7016;48.172;8.058;2023-02-12T00:07:29;1.10;99.90
13892;DHT22;7016;48.172;8.058;2023-02-12T00:09:55;1.10;99.90
13892;DHT22;7016;48.172;8.058;2023-02-12T00:12:21;1.00;99.90
13892;DHT22;7016;48.172;8.058;2023-02-12T00:14:47;1.10;99.90
13892;DHT22;7016;48.172;8.058;2023-02-12T00:17:12;1.10;99.90
13892;DHT22;7016;48.172;8.058;2023-02-12T00:19:38;1.10;99.90
13892;DHT22;7016;48.172;8.058;2023-02-12T00:22:04;1.00;99.90
13892;DHT22;7016;48.172;8.058;2023-02-12T00:24:30;0.70;99.90
13892;DHT22;7016;48.172;8.058;2023-02-12T00:26:55;0.60;99.90
13892;DHT22;7016;48.172;8.058;2023-02-12T00:29:21;0.80;99.90
13892;DHT22;7016;48.172;8.058;2023-02-12T00:31:47;0.80;99.90
13892;DHT22;7016;48.172;8.058;2023-02-12T00:34:12;0.90;99.90
13892;DHT22;7016;48.172;8.058;2023-02-12T00:36:38;0.90;99.90
13892;DHT22;7016;48.172;8.058;2023-02-12T00:39:04;0.90;99.90
13892;DHT22;7016;48.172;8.058;2023-02-12T00:41:30;0.90;99.90
13892;DHT22;7016;48.172;8.058;2023-02-12T00:43:55;0.70;99.90
13892;DHT22;7016;48.172;8.058;2023-02-12T00:46:22;0.60;99.90
13892;DHT22;7016;48.172;8.058;2023-02-12T00:48:47;0.60;99.90
13892;DHT22;7016;48.172;8.058;2023-02-12T00:51:13;0.70;99.90
13892;DHT22;7016;48.172;8.058;2023-02-12T00:53:39;0.60;99.90
13892;DHT22;7016;48.172;8.058;2023-02-12T00:56:05;0.70;99.90
13892;DHT22;7016;48.172;8.058;2023-02-12T00:58:31;0.80;99.90
13892;DHT22;7016;48.172;8.058;2023-02-12T01:00:57;0.90;99.90
13892;DHT22;7016;48.172;8.058;2023-02-12T01:03:23;0.90;99.90
13892;DHT22;7016;48.172;8.058;2023-02-12T01:05:49;0.80;99.90
13892;DHT22;7016;48.172;8.058;2023-02-12T01:08:15;0.70;99.90
13892;DHT22;7016;48.172;8.058;2023-02-12T01:10:42;0.80;99.90
13892;DHT22;7016;48.172;8.058;2023-02-12T01:13:11;0.80;99.90
13892;DHT22;7016;48.172;8.058;2023-02-12T01:15:38;0.90;99.90
13892;DHT22;7016;48.172;8.058;2023-02-12T01:18:04;0.90;99.90
13892;DHT22;7016;48.172;8.058;2023-02-12T01:20:29;0.90;99.90
13892;DHT22;7016;48.172;8.058;2023-02-12T01:22:55;0.90;99.90
13892;DHT22;7016;48.172;8.058;2023-02-12T01:25:21;0.90;99.90
13892;DHT22;7016;48.172;8.058;2023-02-12T01:27:47;3.70;99.90
13892;DHT22;7016;48.172;8.058;2023-02-12T01:30:13;0.90;99.90
13892;DHT22;7016;48.172;8.058;2023-02-12T01:32:39;0.90;99.90
13892;DHT22;7016;48.172;8.058;2023-02-12T01:35:07;0.80;99.90
13892;DHT22;7016;48.172;8.058;2023-02-12T01:37:35;0.80;99.90
13892;DHT22;7016;48.172;8.058;2023-02-12T01:40:02;0.80;99.90
13892;DHT22;7016;48.172;8.058;2023-02-12T01:42:28;0.80;99.90
13892;DHT22;7016;48.172;8.058;2023-02-12T01:47:43;0.90;99.90
13892;DHT22;7016;48.172;8.058;2023-02-12T01:50:12;1.00;99.90
13892;DHT22;7016;48.172;8.058;2023-02-12T01:52:41;1.00;99.90
13892;DHT22;7016;48.172;8.058;2023-02-12T01:55:11;1.00;99.90
13892;DHT22;7016;48.172;8.058;2023-02-12T01:57:40;1.00;99.90
13892;DHT22;7016;48.172;8.058;2023-02-12T02:00:10;0.90;99.90
13892;DHT22;7016;48.172;8.058;2023-02-12T02:02:38;0.90;99.90
13892;DHT22;7016;48.172;8.058;2023-02-12T02:05:05;0.80;99.90
13892;DHT22;7016;48.172;8.058;2023-02-12T02:07:32;0.80;99.90
13892;DHT22;7016;48.172;8.058;2023-02-12T02:09:58;0.80;99.90
13892;DHT22;7016;48.172;8.058;2023-02-12T02:12:25;0.90;99.90
13892;DHT22;7016;48.172;8.058;2023-02-12T02:15:10;1.00;99.90
13892;DHT22;7016;48.172;8.058;2023-02-12T02:17:58;1.10;99.90
13892;DHT22;7016;48.172;8.058;2023-02-12T02:29:09;1.00;99.90
13892;DHT22;7016;48.172;8.058;2023-02-12T02:34:26;0.90;99.90
13892;DHT22;7016;48.172;8.058;2023-02-12T02:42:15;1.00;99.90
13892;DHT22;7016;48.172;8.058;2023-02-12T02:44:49;1.00;99.90
13892;DHT22;7016;48.172;8.058;2023-02-12T02:47:20;1.00;99.90
13892;DHT22;7016;48.172;8.058;2023-02-12T02:49:58;0.90;99.90
13892;DHT22;7016;48.172;8.058;2023-02-12T02:52:51;0.80;99.90
13892;DHT22;7016;48.172;8.058;2023-02-12T02:55:19;0.80;99.90
13892;DHT22;7016;48.172;8.058;2023-02-12T02:57:56;0.80;99.90
13892;DHT22;7016;48.172;8.058;2023-02-12T03:00:33;0.80;99.90
13892;DHT22;7016;48.172;8.058;2023-02-12T03:03:31;0.80;99.90
13892;DHT22;7016;48.172;8.058;2023-02-12T03:06:19;0.70;99.90
13892;DHT22;7016;48.172;8.058;2023-02-12T03:08:51;0.60;99.90
13892;DHT22;7016;48.172;8.058;2023-02-12T03:11:29;0.80;99.90
13892;DHT22;7016;48.172;8.058;2023-02-12T03:14:16;0.80;99.90
13892;DHT22;7016;48.172;8.058;2023-02-12T03:19:26;0.70;99.90
13892;DHT22;7016;48.172;8.058;2023-02-12T03:22:00;0.80;99.90
13892;DHT22;7016;48.172;8.058;2023-02-12T03:24:35;0.80;99.90
13892;DHT22;7016;48.172;8.058;2023-02-12T03:29:30;0.80;99.90
13892;DHT22;7016;48.172;8.058;2023-02-12T03:32:21;0.70;99.90
13892;DHT22;7016;48.172;8.058;2023-02-12T03:37:32;0.80;99.90
13892;DHT22;7016;48.172;8.058;2023-02-12T03:43:01;0.80;99.90
13892;DHT22;7016;48.172;8.058;2023-02-12T03:46:02;0.90;99.90
13892;DHT22;7016;48.172;8.058;2023-02-12T03:51:04;0.90;99.90
13892;DHT22;7016;48.172;8.058;2023-02-12T03:53:34;0.60;99.90
13892;DHT22;7016;48.172;8.058;2023-02-12T03:56:12;0.70;99.90
13892;DHT22;7016;48.172;8.058;2023-02-12T03:58:40;0.60;99.90
13892;DHT22;7016;48.172;8.058;2023-02-12T04:01:11;0.60;99.90
13892;DHT22;7016;48.172;8.058;2023-02-12T04:03:38;0.60;99.90
13892;DHT22;7016;48.172;8.058;2023-02-12T04:06:04;0.50;99.90
13892;DHT22;7016;48.172;8.058;2023-02-12T04:08:30;0.50;99.90
13892;DHT22;7016;48.172;8.058;2023-02-12T04:11:12;0.50;99.90
13892;DHT22;7016;48.172;8.058;2023-02-12T04:16:32;0.60;99.90
13892;DHT22;7016;48.172;8.058;2023-02-12T04:18:59;0.60;99.90
13892;DHT22;7016;48.172;8.058;2023-02-12T04:21:39;0.70;99.90
13892;DHT22;7016;48.172;8.058;2023-02-12T04:27:40;0.70;99.90
13892;DHT22;7016;48.172;8.058;2023-02-12T04:32:50;0.80;99.90
13892;DHT22;7016;48.172;8.058;2023-02-12T04:35:31;0.80;99.90
13892;DHT22;7016;48.172;8.058;2023-02-12T04:40:34;0.70;99.90
13892;DHT22;7016;48.172;8.058;2023-02-12T04:43:00;0.80;99.90
13892;DHT22;7016;48.172;8.058;2023-02-12T04:45:29;0.90;99.90
13892;DHT22;7016;48.172;8.058;2023-02-12T04:47:55;0.80;99.90
13892;DHT22;7016;48.172;8.058;2023-02-12T04:50:22;0.70;99.90
13892;DHT22;7016;48.172;8.058;2023-02-12T04:52:48;0.80;99.90
13892;DHT22;7016;48.172;8.058;2023-02-12T04:55:14;0.80;99.90
13892;DHT22;7016;48.172;8.058;2023-02-12T04:57:40;0.80;99.90
13892;DHT22;7016;48.172;8.058;2023-02-12T05:00:07;0.80;99.90
13892;DHT22;7016;48.172;8.058;2023-02-12T05:02:33;0.80;99.90
13892;DHT22;7016;48.172;8.058;2023-02-12T05:04:59;0.80;99.90
13892;DHT22;7016;48.172;8.058;2023-02-12T05:07:25;0.70;99.90
13892;DHT22;7016;48.172;8.058;2023-02-12T05:09:51;0.70;99.90
13892;DHT22;7016;48.172;8.058;2023-02-12T05:12:16;0.70;99.90
13892;DHT22;7016;48.172;8.058;2023-02-12T05:14:42;0.70;99.90
13892;DHT22;7016;48.172;8.058;2023-02-12T05:17:08;0.70;99.90
13892;DHT22;7016;48.172;8.058;2023-02-12T05:19:34;0.80;99.90
13892;DHT22;7016;48.172;8.058;2023-02-12T05:21:59;0.80;99.90
13892;DHT22;7016;48.172;8.058;2023-02-12T05:24:25;0.90;99.90
13892;DHT22;7016;48.172;8.058;2023-02-12T05:26:51;0.90;99.90
13892;DHT22;7016;48.172;8.058;2023-02-12T05:29:17;0.80;99.90
13892;DHT22;7016;48.172;8.058;2023-02-12T05:31:43;0.80;99.90
13892;DHT22;7016;48.172;8.058;2023-02-12T05:34:11;0.90;99.90
13892;DHT22;7016;48.172;8.058;2023-02-12T05:36:38;0.90;99.90
13892;DHT22;7016;48.172;8.058;2023-02-12T05:39:04;0.90;99.90
13892;DHT22;7016;48.172;8.058;2023-02-12T05:41:31;0.90;99.90
13892;DHT22;7016;48.172;8.058;2023-02-12T05:44:00;0.80;99.90
13892;DHT22;7016;48.172;8.058;2023-02-12T05:46:26;0.80;99.90
13892;DHT22;7016;48.172;8.058;2023-02-12T05:48:52;0.90;99.90
13892;DHT22;7016;48.172;8.058;2023-02-12T05:51:20;0.90;99.90
13892;DHT22;7016;48.172;8.058;2023-02-12T05:53:47;0.70;99.90
13892;DHT22;7016;48.172;8.058;2023-02-12T05:56:21;0.60;99.90
13892;DHT22;7016;48.172;8.058;2023-02-12T05:58:55;0.50;99.90
13892;DHT22;7016;48.172;8.058;2023-02-12T06:01:27;0.50;99.90
13892;DHT22;7016;48.172;8.058;2023-02-12T06:03:53;0.70;99.90
13892;DHT22;7016;48.172;8.058;2023-02-12T06:06:19;0.70;99.90
13892;DHT22;7016;48.172;8.058;2023-02-12T06:08:48;0.80;99.90
13892;DHT22;7016;48.172;8.058;2023-02-12T06:11:16;0.90;99.90
13892;DHT22;7016;48.172;8.058;2023-02-12T06:13:42;0.90;99.90
13892;DHT22;7016;48.172;8.058;2023-02-12T06:16:21;0.90;99.90
13892;DHT22;7016;48.172;8.058;2023-02-12T06:18:48;0.90;99.90
13892;DHT22;7016;48.172;8.058;2023-02-12T06:21:14;0.80;99.90
13892;DHT22;7016;48.172;8.058;2023-02-12T06:23:40;0.80;99.90
13892;DHT22;7016;48.172;8.058;2023-02-12T06:26:06;0.80;99.90
13892;DHT22;7016;48.172;8.058;2023-02-12T06:28:32;0.80;99.90
13892;DHT22;7016;48.172;8.058;2023-02-12T06:30:58;0.80;99.90
13892;DHT22;7016;48.172;8.058;2023-02-12T06:33:23;0.80;99.90
13892;DHT22;7016;48.172;8.058;2023-02-12T06:35:49;0.80;99.90
13892;DHT22;7016;48.172;8.058;2023-02-12T06:38:15;0.80;99.90
13892;DHT22;7016;48.172;8.058;2023-02-12T06:40:41;0.70;99.90
13892;DHT22;7016;48.172;8.058;2023-02-12T06:43:06;0.70;99.90
13892;DHT22;7016;48.172;8.058;2023-02-12T06:45:33;0.70;99.90
13892;DHT22;7016;48.172;8.058;2023-02-12T06:47:59;0.70;99.90
13892;DHT22;7016;48.172;8.058;2023-02-12T06:50:24;0.60;99.90
13892;DHT22;7016;48.172;8.058;2023-02-12T06:52:50;0.50;99.90
13892;DHT22;7016;48.172;8.058;2023-02-12T06:55:16;0.70;99.90
13892;DHT22;7016;48.172;8.058;2023-02-12T06:57:42;0.70;99.90
13892;DHT22;7016;48.172;8.058;2023-02-12T07:00:08;0.80;99.90
13892;DHT22;7016;48.172;8.058;2023-02-12T07:02:34;0.80;99.90
13892;DHT22;7016;48.172;8.058;2023-02-12T07:05:00;0.70;99.90
13892;DHT22;7016;48.172;8.058;2023-02-12T07:07:26;0.70;99.90
13892;DHT22;7016;48.172;8.058;2023-02-12T07:09:52;0.70;99.90
13892;DHT22;7016;48.172;8.058;2023-02-12T07:12:17;0.70;99.90
13892;DHT22;7016;48.172;8.058;2023-02-12T07:14:43;0.80;99.90
13892;DHT22;7016;48.172;8.058;2023-02-12T07:17:09;0.90;99.90
13892;DHT22;7016;48.172;8.058;2023-02-12T07:19:35;0.90;99.90
13892;DHT22;7016;48.172;8.058;2023-02-12T07:22:01;0.90;99.90
13892;DHT22;7016;48.172;8.058;2023-02-12T07:24:26;0.90;99.90
13892;DHT22;7016;48.172;8.058;2023-02-12T07:26:52;0.90;99.90
13892;DHT22;7016;48.172;8.058;2023-02-12T07:29:18;1.00;99.90
13892;DHT22;7016;48.172;8.058;2023-02-12T07:31:44;1.00;99.90
13892;DHT22;7016;48.172;8.058;2023-02-12T07:34:10;1.00;99.90
13892;DHT22;7016;48.172;8.058;2023-02-12T07:36:36;1.00;99.90
13892;DHT22;7016;48.172;8.058;2023-02-12T07:39:02;1.00;99.90
13892;DHT22;7016;48.172;8.058;2023-02-12T07:41:30;1.10;99.90
13892;DHT22;7016;48.172;8.058;2023-02-12T07:44:00;1.20;99.90
13892;DHT22;7016;48.172;8.058;2023-02-12T07:46:31;1.10;99.90
13892;DHT22;7016;48.172;8.058;2023-02-12T07:48:58;1.10;99.90
13892;DHT22;7016;48.172;8.058;2023-02-12T07:51:25;1.10;99.90
13892;DHT22;7016;48.172;8.058;2023-02-12T07:53:52;1.20;99.90
13892;DHT22;7016;48.172;8.058;2023-02-12T07:56:23;1.20;99.90
13892;DHT22;7016;48.172;8.058;2023-02-12T07:58:51;1.30;99.90
13892;DHT22;7016;48.172;8.058;2023-02-12T08:01:20;1.30;99.90
13892;DHT22;7016;48.172;8.058;2023-02-12T08:03:47;1.30;99.90
13892;DHT22;7016;48.172;8.058;2023-02-12T08:06:16;1.30;99.90
13892;DHT22;7016;48.172;8.058;2023-02-12T08:11:12;1.50;99.90
13892;DHT22;7016;48.172;8.058;2023-02-12T08:16:11;1.40;99.90
13892;DHT22;7016;48.172;8.058;2023-02-12T08:21:08;1.50;99.90
13892;DHT22;7016;48.172;8.058;2023-02-12T08:26:14;1.90;99.90
13892;DHT22;7016;48.172;8.058;2023-02-12T08:28:43;2.00;99.90
13892;DHT22;7016;48.172;8.058;2023-02-12T08:31:19;2.10;99.90
13892;DHT22;7016;48.172;8.058;2023-02-12T08:33:51;2.10;99.90
13892;DHT22;7016;48.172;8.058;2023-02-12T08:36:27;2.20;99.90
13892;DHT22;7016;48.172;8.058;2023-02-12T08:38:57;2.30;99.90
13892;DHT22;7016;48.172;8.058;2023-02-12T08:41:26;2.30;99.90
13892;DHT22;7016;48.172;8.058;2023-02-12T08:43:56;2.40;99.90
13892;DHT22;7016;48.172;8.058;2023-02-12T08:46:31;2.40;99.90
13892;DHT22;7016;48.172;8.058;2023-02-12T08:48:59;2.40;99.90
13892;DHT22;7016;48.172;8.058;2023-02-12T08:51:27;2.60;99.90
13892;DHT22;7016;48.172;8.058;2023-02-12T08:54:00;2.60;99.90
13892;DHT22;7016;48.172;8.058;2023-02-12T08:56:27;2.70;99.90
13892;DHT22;7016;48.172;8.058;2023-02-12T08:58:56;2.80;99.90
13892;DHT22;7016;48.172;8.058;2023-02-12T09:01:24;2.90;99.90
13892;DHT22;7016;48.172;8.058;2023-02-12T09:03:50;2.90;99.90
13892;DHT22;7016;48.172;8.058;2023-02-12T09:06:18;3.00;99.90
13892;DHT22;7016;48.172;8.058;2023-02-12T09:08:44;3.10;99.90
13892;DHT22;7016;48.172;8.058;2023-02-12T09:11:16;3.10;99.90
13892;DHT22;7016;48.172;8.058;2023-02-12T09:13:43;3.20;99.90
13892;DHT22;7016;48.172;8.058;2023-02-12T09:16:09;3.30;99.90
13892;DHT22;7016;48.172;8.058;2023-02-12T09:18:36;3.40;99.90
13892;DHT22;7016;48.172;8.058;2023-02-12T09:21:07;3.50;99.90
13892;DHT22;7016;48.172;8.058;2023-02-12T09:23:34;3.60;99.90
13892;DHT22;7016;48.172;8.058;2023-02-12T09:26:09;3.70;99.90
13892;DHT22;7016;48.172;8.058;2023-02-12T09:28:35;3.70;99.90
13892;DHT22;7016;48.172;8.058;2023-02-12T09:33:31;3.90;99.90
13892;DHT22;7016;48.172;8.058;2023-02-12T09:36:06;3.90;99.90
13892;DHT22;7016;48.172;8.058;2023-02-12T09:38:33;4.00;99.90
13892;DHT22;7016;48.172;8.058;2023-02-12T09:51:03;4.50;99.90
13892;DHT22;7016;48.172;8.058;2023-02-12T09:53:35;4.60;99.90
13892;DHT22;7016;48.172;8.058;2023-02-12T09:56:02;4.70;99.90
13892;DHT22;7016;48.172;8.058;2023-02-12T10:01:14;4.80;99.90
13892;DHT22;7016;48.172;8.058;2023-02-12T10:03:40;4.90;99.90
13892;DHT22;7016;48.172;8.058;2023-02-12T10:06:10;5.00;99.90
13892;DHT22;7016;48.172;8.058;2023-02-12T10:14:43;5.30;99.90
13892;DHT22;7016;48.172;8.058;2023-02-12T10:20:20;5.50;99.90
13892;DHT22;7016;48.172;8.058;2023-02-12T10:28:38;5.80;99.90
13892;DHT22;7016;48.172;8.058;2023-02-12T10:31:12;5.90;99.90
13892;DHT22;7016;48.172;8.058;2023-02-12T10:33:46;6.00;99.90
13892;DHT22;7016;48.172;8.058;2023-02-12T10:39:11;6.30;99.90
13892;DHT22;7016;48.172;8.058;2023-02-12T10:44:11;6.60;99.90
13892;DHT22;7016;48.172;8.058;2023-02-12T10:46:37;6.50;99.90
13892;DHT22;7016;48.172;8.058;2023-02-12T10:49:04;6.60;99.90
13892;DHT22;7016;48.172;8.058;2023-02-12T10:54:44;6.90;99.90
13892;DHT22;7016;48.172;8.058;2023-02-12T10:57:28;6.90;99.90
13892;DHT22;7016;48.172;8.058;2023-02-12T10:59:55;7.00;99.90
13892;DHT22;7016;48.172;8.058;2023-02-12T11:02:28;7.00;99.90
13892;DHT22;7016;48.172;8.058;2023-02-12T11:04:55;7.10;99.90
13892;DHT22;7016;48.172;8.058;2023-02-12T11:07:23;7.10;99.90
13892;DHT22;7016;48.172;8.058;2023-02-12T11:09:51;7.20;99.90
13892;DHT22;7016;48.172;8.058;2023-02-12T11:15:15;7.40;99.90
13892;DHT22;7016;48.172;8.058;2023-02-12T11:17:44;7.40;99.90
13892;DHT22;7016;48.172;8.058;2023-02-12T11:22:53;7.40;99.90
13892;DHT22;7016;48.172;8.058;2023-02-12T11:25:21;7.50;99.90
13892;DHT22;7016;48.172;8.058;2023-02-12T11:30:54;7.50;99.90
13892;DHT22;7016;48.172;8.058;2023-02-12T11:33:21;7.60;99.90
13892;DHT22;7016;48.172;8.058;2023-02-12T11:35:57;7.70;99.90
13892;DHT22;7016;48.172;8.058;2023-02-12T11:38:30;7.70;99.90
13892;DHT22;7016;48.172;8.058;2023-02-12T11:40:59;7.70;99.90
13892;DHT22;7016;48.172;8.058;2023-02-12T11:43:26;7.70;99.90
13892;DHT22;7016;48.172;8.058;2023-02-12T11:45:54;7.90;99.90
13892;DHT22;7016;48.172;8.058;2023-02-12T11:48:41;8.00;99.90
13892;DHT22;7016;48.172;8.058;2023-02-12T11:51:19;8.00;99.90
13892;DHT22;7016;48.172;8.058;2023-02-12T11:53:49;8.10;99.90
13892;DHT22;7016;48.172;8.058;2023-02-12T11:56:16;8.20;99.90
13892;DHT22;7016;48.172;8.058;2023-02-12T11:58:42;8.10;99.90
13892;DHT22;7016;48.172;8.058;2023-02-12T12:01:29;8.10;99.90
13892;DHT22;7016;48.172;8.058;2023-02-12T12:04:07;8.20;99.90
13892;DHT22;7016;48.172;8.058;2023-02-12T12:06:52;8.30;99.90
13892;DHT22;7016;48.172;8.058;2023-02-12T12:09:43;8.30;99.90
13892;DHT22;7016;48.172;8.058;2023-02-12T12:12:40;8.30;99.90
13892;DHT22;7016;48.172;8.058;2023-02-12T12:15:31;8.40;99.90
13892;DHT22;7016;48.172;8.058;2023-02-12T12:26:34;8.50;99.90
13892;DHT22;7016;48.172;8.058;2023-02-12T12:31:58;8.60;99.90
13892;DHT22;7016;48.172;8.058;2023-02-12T12:34:26;8.70;99.90
13892;DHT22;7016;48.172;8.058;2023-02-12T12:45:30;8.90;99.90
13892;DHT22;7016;48.172;8.058;2023-02-12T12:54:21;8.90;99.90
13892;DHT22;7016;48.172;8.058;2023-02-12T13:00:21;9.00;99.90
13892;DHT22;7016;48.172;8.058;2023-02-12T13:13:45;9.20;99.90
13892;DHT22;7016;48.172;8.058;2023-02-12T13:16:21;9.20;99.90
13892;DHT22;7016;48.172;8.058;2023-02-12T13:27:09;9.20;99.90
13892;DHT22;7016;48.172;8.058;2023-02-12T13:32:22;9.20;99.90
13892;DHT22;7016;48.172;8.058;2023-02-12T13:34:52;9.30;99.90
13892;DHT22;7016;48.172;8.058;2023-02-12T13:37:37;9.30;99.90
13892;DHT22;7016;48.172;8.058;2023-02-12T13:40:12;9.40;99.90
13892;DHT22;7016;48.172;8.058;2023-02-12T13:56:32;9.40;99.90
13892;DHT22;7016;48.172;8.058;2023-02-12T13:58:59;9.40;99.90
13892;DHT22;7016;48.172;8.058;2023-02-12T14:07:04;9.40;99.90
13892;DHT22;7016;48.172;8.058;2023-02-12T14:09:43;9.40;99.90
13892;DHT22;7016;48.172;8.058;2023-02-12T14:15:20;9.50;99.90
13892;DHT22;7016;48.172;8.058;2023-02-12T14:27:51;9.50;99.90
13892;DHT22;7016;48.172;8.058;2023-02-12T14:35:46;9.50;99.90
13892;DHT22;7016;48.172;8.058;2023-02-12T14:40:43;9.50;99.90
13892;DHT22;7016;48.172;8.058;2023-02-12T14:43:32;9.50;99.90
13892;DHT22;7016;48.172;8.058;2023-02-12T14:51:43;9.30;99.90
13892;DHT22;7016;48.172;8.058;2023-02-12T14:56:44;9.30;99.90
13892;DHT22;7016;48.172;8.058;2023-02-12T14:59:15;9.20;99.90
13892;DHT22;7016;48.172;8.058;2023-02-12T15:01:42;9.20;99.90
13892;DHT22;7016;48.172;8.058;2023-02-12T15:04:23;9.20;99.90
13892;DHT22;7016;48.172;8.058;2023-02-12T15:07:13;9.20;99.90
13892;DHT22;7016;48.172;8.058;2023-02-12T15:09:59;9.20;99.90
13892;DHT22;7016;48.172;8.058;2023-02-12T15:12:42;9.10;99.90
13892;DHT22;7016;48.172;8.058;2023-02-12T15:15:22;8.90;99.90
13892;DHT22;7016;48.172;8.058;2023-02-12T15:18:13;8.90;99.90
13892;DHT22;7016;48.172;8.058;2023-02-12T15:20:49;8.90;99.90
13892;DHT22;7016;48.172;8.058;2023-02-12T15:26:02;8.80;99.90
13892;DHT22;7016;48.172;8.058;2023-02-12T15:28:33;8.80;99.90
13892;DHT22;7016;48.172;8.058;2023-02-12T15:31:04;8.80;99.90
13892;DHT22;7016;48.172;8.058;2023-02-12T15:33:38;8.70;99.90
13892;DHT22;7016;48.172;8.058;2023-02-12T15:36:07;8.70;99.90
13892;DHT22;7016;48.172;8.058;2023-02-12T15:38:38;8.70;99.90
13892;DHT22;7016;48.172;8.058;2023-02-12T15:41:07;8.70;99.90
13892;DHT22;7016;48.172;8.058;2023-02-12T15:43:37;8.70;99.90
13892;DHT22;7016;48.172;8.058;2023-02-12T15:46:05;8.80;99.90
13892;DHT22;7016;48.172;8.058;2023-02-12T15:48:36;8.80;99.90
13892;DHT22;7016;48.172;8.058;2023-02-12T15:53:43;8.80;99.90
13892;DHT22;7016;48.172;8.058;2023-02-12T15:56:14;8.70;99.90
13892;DHT22;7016;48.172;8.058;2023-02-12T15:58:59;8.70;99.90
13892;DHT22;7016;48.172;8.058;2023-02-12T16:01:32;8.50;99.90
13892;DHT22;7016;48.172;8.058;2023-02-12T16:04:01;8.40;99.90
13892;DHT22;7016;48.172;8.058;2023-02-12T16:06:30;8.20;99.90
13892;DHT22;7016;48.172;8.058;2023-02-12T16:09:08;8.30;99.90
13892;DHT22;7016;48.172;8.058;2023-02-12T16:11:38;8.30;99.90
13892;DHT22;7016;48.172;8.058;2023-02-12T16:14:35;8.10;99.90
13892;DHT22;7016;48.172;8.058;2023-02-12T16:17:20;8.10;99.90
13892;DHT22;7016;48.172;8.058;2023-02-12T16:22:42;8.00;99.90
13892;DHT22;7016;48.172;8.058;2023-02-12T16:25:23;7.90;99.90
13892;DHT22;7016;48.172;8.058;2023-02-12T16:30:32;8.00;99.90
13892;DHT22;7016;48.172;8.058;2023-02-12T16:33:01;7.90;99.90
13892;DHT22;7016;48.172;8.058;2023-02-12T16:35:32;7.90;99.90
13892;DHT22;7016;48.172;8.058;2023-02-12T16:40:35;7.70;99.90
13892;DHT22;7016;48.172;8.058;2023-02-12T16:43:10;7.50;99.90
13892;DHT22;7016;48.172;8.058;2023-02-12T16:45:46;7.50;99.90
13892;DHT22;7016;48.172;8.058;2023-02-12T16:48:16;7.40;99.90
13892;DHT22;7016;48.172;8.058;2023-02-12T16:50:54;7.40;99.90
13892;DHT22;7016;48.172;8.058;2023-02-12T16:55:55;7.30;99.90
13892;DHT22;7016;48.172;8.058;2023-02-12T16:58:21;7.30;99.90
13892;DHT22;7016;48.172;8.058;2023-02-12T17:00:47;7.20;99.90
13892;DHT22;7016;48.172;8.058;2023-02-12T17:03:15;7.20;99.90
13892;DHT22;7016;48.172;8.058;2023-02-12T17:05:41;7.30;99.90
13892;DHT22;7016;48.172;8.058;2023-02-12T17:08:19;7.30;99.90
13892;DHT22;7016;48.172;8.058;2023-02-12T17:10:45;7.30;99.90
13892;DHT22;7016;48.172;8.058;2023-02-12T17:13:12;7.30;99.90
13892;DHT22;7016;48.172;8.058;2023-02-12T17:15:56;7.30;99.90
13892;DHT22;7016;48.172;8.058;2023-02-12T17:18:23;7.20;99.90
13892;DHT22;7016;48.172;8.058;2023-02-12T17:20:55;7.10;99.90
13892;DHT22;7016;48.172;8.058;2023-02-12T17:23:22;7.20;99.90
13892;DHT22;7016;48.172;8.058;2023-02-12T17:25:47;7.30;99.90
13892;DHT22;7016;48.172;8.058;2023-02-12T17:28:13;7.30;99.90
13892;DHT22;7016;48.172;8.058;2023-02-12T17:30:39;7.30;99.90
13892;DHT22;7016;48.172;8.058;2023-02-12T17:33:05;7.20;99.90
13892;DHT22;7016;48.172;8.058;2023-02-12T17:35:31;7.10;99.90
13892;DHT22;7016;48.172;8.058;2023-02-12T17:37:56;7.00;99.90
13892;DHT22;7016;48.172;8.058;2023-02-12T17:40:22;7.00;99.90
13892;DHT22;7016;48.172;8.058;2023-02-12T17:42:48;7.00;99.90
13892;DHT22;7016;48.172;8.058;2023-02-12T17:45:13;7.00;99.90
13892;DHT22;7016;48.172;8.058;2023-02-12T17:47:40;7.00;99.90
13892;DHT22;7016;48.172;8.058;2023-02-12T17:50:08;6.80;99.90
13892;DHT22;7016;48.172;8.058;2023-02-12T17:52:35;6.80;99.90
13892;DHT22;7016;48.172;8.058;2023-02-12T17:55:03;6.90;99.90
13892;DHT22;7016;48.172;8.058;2023-02-12T17:57:29;6.90;99.90
13892;DHT22;7016;48.172;8.058;2023-02-12T17:59:55;6.90;99.90
13892;DHT22;7016;48.172;8.058;2023-02-12T18:02:22;6.90;99.90
13892;DHT22;7016;48.172;8.058;2023-02-12T18:04:47;7.00;99.90
13892;DHT22;7016;48.172;8.058;2023-02-12T18:07:13;7.10;99.90
13892;DHT22;7016;48.172;8.058;2023-02-12T18:09:39;7.00;99.90
13892;DHT22;7016;48.172;8.058;2023-02-12T18:12:05;7.10;99.90
13892;DHT22;7016;48.172;8.058;2023-02-12T18:14:31;7.10;99.90
13892;DHT22;7016;48.172;8.058;2023-02-12T18:16:57;7.00;99.90
13892;DHT22;7016;48.172;8.058;2023-02-12T18:19:25;7.00;99.90
13892;DHT22;7016;48.172;8.058;2023-02-12T18:21:51;7.00;99.90
13892;DHT22;7016;48.172;8.058;2023-02-12T18:24:16;7.00;99.90
13892;DHT22;7016;48.172;8.058;2023-02-12T18:26:42;7.00;99.90
13892;DHT22;7016;48.172;8.058;2023-02-12T18:29:24;7.00;99.90
13892;DHT22;7016;48.172;8.058;2023-02-12T18:32:02;6.90;99.90
13892;DHT22;7016;48.172;8.058;2023-02-12T18:34:29;7.10;99.90
13892;DHT22;7016;48.172;8.058;2023-02-12T18:36:54;7.10;99.90
13892;DHT22;7016;48.172;8.058;2023-02-12T18:39:20;7.10;99.90
13892;DHT22;7016;48.172;8.058;2023-02-12T18:41:46;7.20;99.90
13892;DHT22;7016;48.172;8.058;2023-02-12T18:44:13;6.90;99.90
13892;DHT22;7016;48.172;8.058;2023-02-12T18:46:39;6.80;99.90
13892;DHT22;7016;48.172;8.058;2023-02-12T18:49:05;6.70;99.90
13892;DHT22;7016;48.172;8.058;2023-02-12T18:51:31;6.90;99.90
13892;DHT22;7016;48.172;8.058;2023-02-12T18:54:03;7.00;99.90
13892;DHT22;7016;48.172;8.058;2023-02-12T18:56:32;6.90;99.90
13892;DHT22;7016;48.172;8.058;2023-02-12T18:58:59;6.70;99.90
13892;DHT22;7016;48.172;8.058;2023-02-12T19:01:26;6.50;99.90
13892;DHT22;7016;48.172;8.058;2023-02-12T19:03:53;6.40;99.90
13892;DHT22;7016;48.172;8.058;2023-02-12T19:06:20;6.30;99.90
13892;DHT22;7016;48.172;8.058;2023-02-12T19:08:46;6.30;99.90
13892;DHT22;7016;48.172;8.058;2023-02-12T19:11:12;6.30;99.90
13892;DHT22;7016;48.172;8.058;2023-02-12T19:13:38;6.20;99.90
13892;DHT22;7016;48.172;8.058;2023-02-12T19:16:09;6.20;99.90
13892;DHT22;7016;48.172;8.058;2023-02-12T19:18:36;6.10;99.90
13892;DHT22;7016;48.172;8.058;2023-02-12T19:21:10;6.10;99.90
13892;DHT22;7016;48.172;8.058;2023-02-12T19:23:38;6.00;99.90
13892;DHT22;7016;48.172;8.058;2023-02-12T19:26:07;6.10;99.90
13892;DHT22;7016;48.172;8.058;2023-02-12T19:28:33;6.00;99.90
13892;DHT22;7016;48.172;8.058;2023-02-12T19:31:18;5.80;99.90
13892;DHT22;7016;48.172;8.058;2023-02-12T19:33:45;5.70;99.90
13892;DHT22;7016;48.172;8.058;2023-02-12T19:36:13;5.80;99.90
13892;DHT22;7016;48.172;8.058;2023-02-12T19:41:12;5.80;99.90
13892;DHT22;7016;48.172;8.058;2023-02-12T19:43:38;5.70;99.90
13892;DHT22;7016;48.172;8.058;2023-02-12T19:46:13;5.60;99.90
13892;DHT22;7016;48.172;8.058;2023-02-12T19:48:39;5.60;99.90
13892;DHT22;7016;48.172;8.058;2023-02-12T19:51:05;5.60;99.90
13892;DHT22;7016;48.172;8.058;2023-02-12T19:53:31;5.60;99.90
13892;DHT22;7016;48.172;8.058;2023-02-12T19:56:01;5.60;99.90
13892;DHT22;7016;48.172;8.058;2023-02-12T19:58:29;5.70;99.90